sensor_id;sensor_type;location;lat;lon;timestamp;pressure;altitude;pressure_sealevel;temperature;humidity
56270;BME280;42176;43.240;27.880;2022-10-23T00:00:48;100269.25;;;14.79;52.63
56270;BME280;42176;43.240;27.880;2022-10-23T00:03:13;100266.50;;;14.81;51.23
56270;BME280;42176;43.240;27.880;2022-10-23T00:05:39;100262.25;;;14.76;51.90
56270;BME280;42176;43.240;27.880;2022-10-23T00:08:06;100258.50;;;14.81;52.11
56270;BME280;42176;43.240;27.880;2022-10-23T00:10:32;100267.44;;;14.80;52.43
56270;BME280;42176;43.240;27.880;2022-10-23T00:12:58;100265.84;;;14.75;52.82
56270;BME280;42176;43.240;27.880;2022-10-23T00:15:23;100264.13;;;14.73;52.58
56270;BME280;42176;43.240;27.880;2022-10-23T00:17:51;100270.47;;;14.70;52.96
56270;BME280;42176;43.240;27.880;2022-10-23T00:20:17;100272.38;;;14.65;52.58
56270;BME280;42176;43.240;27.880;2022-10-23T00:22:42;100260.22;;;14.58;53.01
56270;BME280;42176;43.240;27.880;2022-10-23T00:25:09;100264.81;;;14.54;52.78
56270;BME280;42176;43.240;27.880;2022-10-23T00:27:35;100266.66;;;14.52;53.21
56270;BME280;42176;43.240;27.880;2022-10-23T00:30:01;100258.69;;;14.51;52.52
56270;BME280;42176;43.240;27.880;2022-10-23T00:32:27;100260.44;;;14.52;52.54
56270;BME280;42176;43.240;27.880;2022-10-23T00:34:53;100261.31;;;14.52;52.98
56270;BME280;42176;43.240;27.880;2022-10-23T00:37:19;100256.09;;;14.49;52.63
56270;BME280;42176;43.240;27.880;2022-10-23T00:39:44;100258.69;;;14.51;53.44
56270;BME280;42176;43.240;27.880;2022-10-23T00:42:14;100253.50;;;14.48;53.26
56270;BME280;42176;43.240;27.880;2022-10-23T00:47:06;100255.44;;;14.42;53.17
56270;BME280;42176;43.240;27.880;2022-10-23T00:49:32;100237.09;;;14.33;53.65
56270;BME280;42176;43.240;27.880;2022-10-23T00:52:02;100241.63;;;14.31;53.61
56270;BME280;42176;43.240;27.880;2022-10-23T00:54:32;100234.66;;;14.27;53.52
56270;BME280;42176;43.240;27.880;2022-10-23T00:57:01;100227.03;;;14.16;53.30
56270;BME280;42176;43.240;27.880;2022-10-23T00:59:28;100240.19;;;14.21;53.37
56270;BME280;42176;43.240;27.880;2022-10-23T01:01:54;100231.50;;;14.15;53.49
56270;BME280;42176;43.240;27.880;2022-10-23T01:04:19;100206.09;;;14.05;53.27
56270;BME280;42176;43.240;27.880;2022-10-23T01:07:55;100216.47;;;14.13;53.33
56270;BME280;42176;43.240;27.880;2022-10-23T01:12:27;100203.53;;;14.02;53.77
56270;BME280;42176;43.240;27.880;2022-10-23T01:17:32;100203.66;;;13.99;52.94
56270;BME280;42176;43.240;27.880;2022-10-23T01:22:53;100202.72;;;14.00;53.30
56270;BME280;42176;43.240;27.880;2022-10-23T01:28:23;100206.47;;;13.94;53.50
56270;BME280;42176;43.240;27.880;2022-10-23T01:30:50;100198.03;;;13.81;53.90
56270;BME280;42176;43.240;27.880;2022-10-23T01:33:30;100211.25;;;13.84;54.42
56270;BME280;42176;43.240;27.880;2022-10-23T01:36:03;100211.25;;;13.84;55.73
56270;BME280;42176;43.240;27.880;2022-10-23T01:38:41;100202.44;;;13.82;55.66
56270;BME280;42176;43.240;27.880;2022-10-23T01:41:14;100195.38;;;13.81;55.77
56270;BME280;42176;43.240;27.880;2022-10-23T01:43:45;100192.00;;;13.76;55.62
56270;BME280;42176;43.240;27.880;2022-10-23T01:46:15;100192.88;;;13.77;55.91
56270;BME280;42176;43.240;27.880;2022-10-23T01:48:48;100191.06;;;13.77;56.56
56270;BME280;42176;43.240;27.880;2022-10-23T01:51:16;100194.66;;;13.76;56.30
56270;BME280;42176;43.240;27.880;2022-10-23T01:53:44;100179.66;;;13.74;56.05
56270;BME280;42176;43.240;27.880;2022-10-23T01:56:14;100185.00;;;13.72;55.96
56270;BME280;42176;43.240;27.880;2022-10-23T01:58:45;100199.25;;;13.71;55.21
56270;BME280;42176;43.240;27.880;2022-10-23T02:01:12;100194.91;;;13.68;55.74
56270;BME280;42176;43.240;27.880;2022-10-23T02:03:40;100201.16;;;13.67;56.67
56270;BME280;42176;43.240;27.880;2022-10-23T02:06:07;100188.06;;;13.61;56.98
56270;BME280;42176;43.240;27.880;2022-10-23T02:08:33;100194.09;;;13.66;57.01
56270;BME280;42176;43.240;27.880;2022-10-23T02:11:00;100197.66;;;13.67;57.82
56270;BME280;42176;43.240;27.880;2022-10-23T02:18:54;100197.84;;;13.61;57.15
56270;BME280;42176;43.240;27.880;2022-10-23T02:21:31;100194.41;;;13.57;57.91
56270;BME280;42176;43.240;27.880;2022-10-23T02:24:08;100203.38;;;13.54;58.01
56270;BME280;42176;43.240;27.880;2022-10-23T02:26:40;100207.16;;;13.47;58.09
56270;BME280;42176;43.240;27.880;2022-10-23T02:29:17;100205.50;;;13.43;58.50
56270;BME280;42176;43.240;27.880;2022-10-23T02:31:44;100200.28;;;13.40;58.87
56270;BME280;42176;43.240;27.880;2022-10-23T02:34:10;100207.44;;;13.38;59.19
56270;BME280;42176;43.240;27.880;2022-10-23T02:36:36;100195.16;;;13.34;59.77
56270;BME280;42176;43.240;27.880;2022-10-23T02:39:02;100191.97;;;13.22;60.00
56270;BME280;42176;43.240;27.880;2022-10-23T02:50:04;100204.53;;;13.17;59.68
56270;BME280;42176;43.240;27.880;2022-10-23T02:52:50;100215.28;;;13.14;59.55
56270;BME280;42176;43.240;27.880;2022-10-23T02:55:57;100206.28;;;13.18;59.28
56270;BME280;42176;43.240;27.880;2022-10-23T02:58:31;100211.59;;;13.18;58.99
56270;BME280;42176;43.240;27.880;2022-10-23T03:01:10;100215.19;;;13.17;59.12
56270;BME280;42176;43.240;27.880;2022-10-23T03:03:41;100223.91;;;13.22;58.56
56270;BME280;42176;43.240;27.880;2022-10-23T03:06:09;100205.41;;;13.18;57.32
56270;BME280;42176;43.240;27.880;2022-10-23T03:08:43;100222.78;;;13.30;57.93
56270;BME280;42176;43.240;27.880;2022-10-23T03:11:09;100218.09;;;13.38;56.62
56270;BME280;42176;43.240;27.880;2022-10-23T03:13:35;100208.06;;;13.46;55.85
56270;BME280;42176;43.240;27.880;2022-10-23T03:16:00;100208.72;;;13.54;55.68
56270;BME280;42176;43.240;27.880;2022-10-23T03:18:26;100200.47;;;13.62;55.23
56270;BME280;42176;43.240;27.880;2022-10-23T03:20:52;100203.78;;;13.69;55.58
56270;BME280;42176;43.240;27.880;2022-10-23T03:23:17;100205.41;;;13.73;54.83
56270;BME280;42176;43.240;27.880;2022-10-23T03:25:43;100207.06;;;13.77;55.95
56270;BME280;42176;43.240;27.880;2022-10-23T03:28:08;100214.06;;;13.80;55.25
56270;BME280;42176;43.240;27.880;2022-10-23T03:30:34;100223.75;;;13.82;55.64
56270;BME280;42176;43.240;27.880;2022-10-23T03:32:59;100230.69;;;13.86;54.95
56270;BME280;42176;43.240;27.880;2022-10-23T03:35:24;100241.16;;;13.93;54.72
56270;BME280;42176;43.240;27.880;2022-10-23T03:37:50;100242.72;;;14.00;55.12
56270;BME280;42176;43.240;27.880;2022-10-23T03:40:15;100248.78;;;14.04;55.87
56270;BME280;42176;43.240;27.880;2022-10-23T03:42:41;100251.50;;;14.02;56.05
56270;BME280;42176;43.240;27.880;2022-10-23T03:45:07;100255.91;;;14.03;55.73
56270;BME280;42176;43.240;27.880;2022-10-23T03:47:32;100248.13;;;13.97;56.01
56270;BME280;42176;43.240;27.880;2022-10-23T03:50:00;100242.06;;;13.93;57.42
56270;BME280;42176;43.240;27.880;2022-10-23T03:52:26;100232.34;;;13.91;57.09
56270;BME280;42176;43.240;27.880;2022-10-23T03:54:51;100227.94;;;13.90;57.88
56270;BME280;42176;43.240;27.880;2022-10-23T03:57:17;100226.19;;;13.89;56.98
56270;BME280;42176;43.240;27.880;2022-10-23T03:59:42;100201.63;;;13.80;56.15
56270;BME280;42176;43.240;27.880;2022-10-23T04:02:08;100225.25;;;13.91;56.60
56270;BME280;42176;43.240;27.880;2022-10-23T04:04:33;100229.59;;;13.94;56.58
56270;BME280;42176;43.240;27.880;2022-10-23T04:06:59;100223.34;;;13.95;56.64
56270;BME280;42176;43.240;27.880;2022-10-23T04:09:24;100190.97;;;13.80;55.75
56270;BME280;42176;43.240;27.880;2022-10-23T04:11:50;100209.09;;;13.96;57.20
56270;BME280;42176;43.240;27.880;2022-10-23T04:14:15;100228.34;;;14.04;57.72
56270;BME280;42176;43.240;27.880;2022-10-23T04:16:41;100221.38;;;14.00;57.10
56270;BME280;42176;43.240;27.880;2022-10-23T04:19:06;100236.31;;;14.04;58.68
56270;BME280;42176;43.240;27.880;2022-10-23T04:21:32;100233.78;;;14.01;57.69
56270;BME280;42176;43.240;27.880;2022-10-23T04:23:57;100232.97;;;13.99;56.54
56270;BME280;42176;43.240;27.880;2022-10-23T04:26:23;100234.75;;;13.98;56.74
56270;BME280;42176;43.240;27.880;2022-10-23T04:28:48;100240.84;;;14.02;55.69
56270;BME280;42176;43.240;27.880;2022-10-23T04:31:13;100240.84;;;14.02;55.63
56270;BME280;42176;43.240;27.880;2022-10-23T04:33:39;100239.91;;;14.03;57.24
56270;BME280;42176;43.240;27.880;2022-10-23T04:36:05;100250.56;;;14.03;57.10
56270;BME280;42176;43.240;27.880;2022-10-23T04:38:30;100244.31;;;14.04;58.92
56270;BME280;42176;43.240;27.880;2022-10-23T04:40:56;100211.25;;;13.84;57.83
56270;BME280;42176;43.240;27.880;2022-10-23T04:43:21;100263.69;;;14.09;59.06
56270;BME280;42176;43.240;27.880;2022-10-23T04:45:47;100264.56;;;14.10;60.23
56270;BME280;42176;43.240;27.880;2022-10-23T04:48:13;100266.44;;;14.08;60.21
56270;BME280;42176;43.240;27.880;2022-10-23T04:50:38;100248.03;;;14.00;59.36
56270;BME280;42176;43.240;27.880;2022-10-23T04:53:04;100268.22;;;14.07;60.00
56270;BME280;42176;43.240;27.880;2022-10-23T04:55:29;100258.47;;;14.06;58.76
56270;BME280;42176;43.240;27.880;2022-10-23T04:57:54;100250.56;;;14.03;57.49
56270;BME280;42176;43.240;27.880;2022-10-23T05:02:46;100259.00;;;13.91;55.41
56270;BME280;42176;43.240;27.880;2022-10-23T05:05:12;100260.84;;;13.89;55.29
56270;BME280;42176;43.240;27.880;2022-10-23T05:07:37;100266.06;;;13.92;55.55
56270;BME280;42176;43.240;27.880;2022-10-23T05:10:04;100267.16;;;13.86;55.37
56270;BME280;42176;43.240;27.880;2022-10-23T05:12:30;100282.16;;;13.89;55.62
56270;BME280;42176;43.240;27.880;2022-10-23T05:14:55;100274.06;;;13.92;57.62
56270;BME280;42176;43.240;27.880;2022-10-23T05:17:26;100282.06;;;13.92;56.85
56270;BME280;42176;43.240;27.880;2022-10-23T05:19:55;100275.44;;;14.04;55.67
56270;BME280;42176;43.240;27.880;2022-10-23T05:22:24;100280.41;;;14.14;54.33
56270;BME280;42176;43.240;27.880;2022-10-23T05:24:52;100277.22;;;14.30;53.74
56270;BME280;42176;43.240;27.880;2022-10-23T05:27:18;100279.81;;;14.57;53.01
56270;BME280;42176;43.240;27.880;2022-10-23T05:29:43;100285.19;;;14.81;52.57
56270;BME280;42176;43.240;27.880;2022-10-23T05:32:11;100286.31;;;14.99;52.07
56270;BME280;42176;43.240;27.880;2022-10-23T05:34:39;100290.66;;;15.25;51.09
56270;BME280;42176;43.240;27.880;2022-10-23T05:37:06;100282.03;;;15.41;50.72
56270;BME280;42176;43.240;27.880;2022-10-23T05:39:33;100295.34;;;15.64;50.28
56270;BME280;42176;43.240;27.880;2022-10-23T05:41:59;100301.59;;;15.87;49.71
56270;BME280;42176;43.240;27.880;2022-10-23T05:44:24;100300.06;;;16.02;49.70
56270;BME280;42176;43.240;27.880;2022-10-23T05:46:50;100304.84;;;16.16;49.22
56270;BME280;42176;43.240;27.880;2022-10-23T05:49:15;100303.97;;;16.36;48.86
56270;BME280;42176;43.240;27.880;2022-10-23T05:51:41;100302.56;;;16.48;48.62
56270;BME280;42176;43.240;27.880;2022-10-23T05:54:07;100296.13;;;16.52;48.61
56270;BME280;42176;43.240;27.880;2022-10-23T05:56:33;100298.41;;;16.62;48.37
56270;BME280;42176;43.240;27.880;2022-10-23T05:58:59;100297.34;;;16.66;48.01
56270;BME280;42176;43.240;27.880;2022-10-23T06:01:25;100296.38;;;16.67;48.10
56270;BME280;42176;43.240;27.880;2022-10-23T06:03:50;100306.56;;;16.79;48.27
56270;BME280;42176;43.240;27.880;2022-10-23T06:06:16;100308.72;;;16.90;48.25
56270;BME280;42176;43.240;27.880;2022-10-23T06:08:41;100314.81;;;16.94;48.00
56270;BME280;42176;43.240;27.880;2022-10-23T06:11:12;100317.22;;;17.00;47.89
56270;BME280;42176;43.240;27.880;2022-10-23T06:13:38;100320.44;;;17.08;47.78
56270;BME280;42176;43.240;27.880;2022-10-23T06:16:14;100328.03;;;17.17;47.65
56270;BME280;42176;43.240;27.880;2022-10-23T06:18:40;100326.16;;;17.19;47.71
56270;BME280;42176;43.240;27.880;2022-10-23T06:21:06;100321.69;;;17.20;47.78
56270;BME280;42176;43.240;27.880;2022-10-23T06:23:34;100331.38;;;17.23;48.15
56270;BME280;42176;43.240;27.880;2022-10-23T06:26:00;100326.16;;;17.19;48.17
56270;BME280;42176;43.240;27.880;2022-10-23T06:28:26;100331.44;;;17.21;48.83
56270;BME280;42176;43.240;27.880;2022-10-23T06:30:51;100335.94;;;17.20;49.28
56270;BME280;42176;43.240;27.880;2022-10-23T06:33:17;100319.94;;;17.19;49.80
56270;BME280;42176;43.240;27.880;2022-10-23T06:35:42;100330.94;;;17.32;50.01
56270;BME280;42176;43.240;27.880;2022-10-23T06:38:11;100305.09;;;17.31;50.15
56270;BME280;42176;43.240;27.880;2022-10-23T06:40:39;100309.38;;;17.35;50.47
56270;BME280;42176;43.240;27.880;2022-10-23T06:43:08;100306.56;;;18.29;48.92
56270;BME280;42176;43.240;27.880;2022-10-23T06:45:33;100300.34;;;20.54;43.97
56270;BME280;42176;43.240;27.880;2022-10-23T06:48:02;100299.78;;;21.78;41.12
56270;BME280;42176;43.240;27.880;2022-10-23T06:50:28;100301.91;;;23.18;38.68
56270;BME280;42176;43.240;27.880;2022-10-23T06:52:59;100321.50;;;23.96;37.08
56270;BME280;42176;43.240;27.880;2022-10-23T06:55:29;100292.44;;;23.74;37.02
56270;BME280;42176;43.240;27.880;2022-10-23T06:57:55;100309.09;;;24.88;35.62
56270;BME280;42176;43.240;27.880;2022-10-23T07:00:20;100312.94;;;25.75;33.65
56270;BME280;42176;43.240;27.880;2022-10-23T07:02:46;100273.56;;;25.48;33.73
56270;BME280;42176;43.240;27.880;2022-10-23T07:05:14;100296.13;;;26.46;32.43
56270;BME280;42176;43.240;27.880;2022-10-23T07:07:40;100317.88;;;26.88;31.93
56270;BME280;42176;43.240;27.880;2022-10-23T07:10:06;100311.59;;;26.98;31.46
56270;BME280;42176;43.240;27.880;2022-10-23T07:12:31;100314.94;;;26.80;31.70
56270;BME280;42176;43.240;27.880;2022-10-23T07:14:57;100300.97;;;26.95;31.53
56270;BME280;42176;43.240;27.880;2022-10-23T07:17:22;100310.78;;;27.07;31.60
56270;BME280;42176;43.240;27.880;2022-10-23T07:19:48;100300.91;;;27.06;31.15
56270;BME280;42176;43.240;27.880;2022-10-23T07:22:16;100314.28;;;27.29;31.10
56270;BME280;42176;43.240;27.880;2022-10-23T07:24:44;100317.47;;;27.75;30.42
56270;BME280;42176;43.240;27.880;2022-10-23T07:27:09;100317.56;;;27.73;30.39
56270;BME280;42176;43.240;27.880;2022-10-23T07:29:35;100318.03;;;27.88;30.05
56270;BME280;42176;43.240;27.880;2022-10-23T07:32:01;100320.19;;;28.04;29.99
56270;BME280;42176;43.240;27.880;2022-10-23T07:34:26;100327.09;;;28.28;29.55
56270;BME280;42176;43.240;27.880;2022-10-23T07:36:58;100329.09;;;28.46;29.15
56270;BME280;42176;43.240;27.880;2022-10-23T07:39:24;100351.38;;;28.98;28.71
56270;BME280;42176;43.240;27.880;2022-10-23T07:41:49;100362.13;;;29.10;28.75
56270;BME280;42176;43.240;27.880;2022-10-23T07:44:15;100373.81;;;29.96;27.70
56270;BME280;42176;43.240;27.880;2022-10-23T07:46:40;100369.22;;;30.14;27.40
56270;BME280;42176;43.240;27.880;2022-10-23T07:49:06;100347.50;;;30.31;27.26
56270;BME280;42176;43.240;27.880;2022-10-23T07:51:34;100355.53;;;30.95;26.48
56270;BME280;42176;43.240;27.880;2022-10-23T07:54:06;100351.88;;;30.23;27.15
56270;BME280;42176;43.240;27.880;2022-10-23T07:56:32;100357.47;;;30.40;27.15
56270;BME280;42176;43.240;27.880;2022-10-23T07:59:00;100348.63;;;29.46;28.71
56270;BME280;42176;43.240;27.880;2022-10-23T08:01:38;100352.03;;;28.63;30.08
56270;BME280;42176;43.240;27.880;2022-10-23T08:04:07;100345.28;;;28.67;29.93
56270;BME280;42176;43.240;27.880;2022-10-23T08:06:33;100368.22;;;27.86;31.21
56270;BME280;42176;43.240;27.880;2022-10-23T08:09:02;100367.34;;;27.44;31.89
56270;BME280;42176;43.240;27.880;2022-10-23T08:11:28;100368.00;;;27.58;31.79
56270;BME280;42176;43.240;27.880;2022-10-23T08:13:59;100376.66;;;27.42;31.90
56270;BME280;42176;43.240;27.880;2022-10-23T08:16:26;100369.28;;;27.23;32.41
56270;BME280;42176;43.240;27.880;2022-10-23T08:18:52;100380.16;;;27.23;32.54
56270;BME280;42176;43.240;27.880;2022-10-23T08:21:18;100377.47;;;27.73;31.58
56270;BME280;42176;43.240;27.880;2022-10-23T08:23:43;100381.78;;;27.66;31.86
56270;BME280;42176;43.240;27.880;2022-10-23T08:26:10;100380.88;;;27.46;32.13
56270;BME280;42176;43.240;27.880;2022-10-23T08:28:36;100379.53;;;27.09;31.95
56270;BME280;42176;43.240;27.880;2022-10-23T08:31:16;100388.31;;;26.92;32.80
56270;BME280;42176;43.240;27.880;2022-10-23T08:33:42;100392.31;;;26.55;33.42
56270;BME280;42176;43.240;27.880;2022-10-23T08:38:44;100404.28;;;25.42;34.93
56270;BME280;42176;43.240;27.880;2022-10-23T08:41:28;100388.41;;;24.78;36.25
56270;BME280;42176;43.240;27.880;2022-10-23T08:44:08;100387.53;;;23.94;37.41
56270;BME280;42176;43.240;27.880;2022-10-23T08:46:38;100395.03;;;23.14;39.03
56270;BME280;42176;43.240;27.880;2022-10-23T08:52:29;100402.53;;;22.30;41.23
56270;BME280;42176;43.240;27.880;2022-10-23T08:57:25;100383.44;;;22.05;41.74
56270;BME280;42176;43.240;27.880;2022-10-23T09:00:05;100380.59;;;21.94;42.02
56270;BME280;42176;43.240;27.880;2022-10-23T09:02:47;100356.91;;;21.85;41.96
56270;BME280;42176;43.240;27.880;2022-10-23T09:05:17;100320.94;;;21.42;42.55
56270;BME280;42176;43.240;27.880;2022-10-23T09:11:10;100376.13;;;21.66;43.41
56270;BME280;42176;43.240;27.880;2022-10-23T09:18:52;100398.56;;;21.66;43.23
56270;BME280;42176;43.240;27.880;2022-10-23T09:21:24;100414.56;;;21.69;43.38
56270;BME280;42176;43.240;27.880;2022-10-23T09:23:51;100426.69;;;21.77;43.11
56270;BME280;42176;43.240;27.880;2022-10-23T09:26:17;100413.00;;;21.65;43.22
56270;BME280;42176;43.240;27.880;2022-10-23T09:28:48;100429.94;;;21.82;43.25
56270;BME280;42176;43.240;27.880;2022-10-23T09:31:14;100434.38;;;21.83;43.28
56270;BME280;42176;43.240;27.880;2022-10-23T09:33:40;100426.50;;;21.80;42.91
56270;BME280;42176;43.240;27.880;2022-10-23T09:36:18;100421.50;;;21.73;43.26
56270;BME280;42176;43.240;27.880;2022-10-23T09:38:51;100420.03;;;21.82;42.88
56270;BME280;42176;43.240;27.880;2022-10-23T09:41:29;100428.97;;;21.83;42.74
56270;BME280;42176;43.240;27.880;2022-10-23T09:46:40;100422.63;;;21.84;42.88
56270;BME280;42176;43.240;27.880;2022-10-23T09:49:14;100425.72;;;21.92;43.05
56270;BME280;42176;43.240;27.880;2022-10-23T09:51:39;100421.81;;;21.96;43.12
56270;BME280;42176;43.240;27.880;2022-10-23T09:54:14;100422.50;;;22.00;42.77
56270;BME280;42176;43.240;27.880;2022-10-23T09:57:05;100431.84;;;22.09;42.71
56270;BME280;42176;43.240;27.880;2022-10-23T09:59:40;100428.38;;;22.07;42.09
56270;BME280;42176;43.240;27.880;2022-10-23T10:02:29;100424.50;;;21.96;42.62
56270;BME280;42176;43.240;27.880;2022-10-23T10:04:55;100432.38;;;21.86;42.72
56270;BME280;42176;43.240;27.880;2022-10-23T10:07:29;100423.97;;;21.91;42.79
56270;BME280;42176;43.240;27.880;2022-10-23T10:09:56;100436.31;;;21.95;42.56
56270;BME280;42176;43.240;27.880;2022-10-23T10:16:05;100414.72;;;21.95;42.93
56270;BME280;42176;43.240;27.880;2022-10-23T10:21:16;100439.56;;;22.00;42.71
56270;BME280;42176;43.240;27.880;2022-10-23T10:23:50;100434.72;;;22.05;42.22
56270;BME280;42176;43.240;27.880;2022-10-23T10:29:15;100431.97;;;21.93;42.25
56270;BME280;42176;43.240;27.880;2022-10-23T10:32:15;100431.75;;;21.96;42.20
56270;BME280;42176;43.240;27.880;2022-10-23T10:45:37;100415.78;;;22.20;41.60
56270;BME280;42176;43.240;27.880;2022-10-23T10:48:33;100429.94;;;22.24;41.68
56270;BME280;42176;43.240;27.880;2022-10-23T10:51:13;100413.09;;;22.20;41.32
56270;BME280;42176;43.240;27.880;2022-10-23T10:53:57;100429.16;;;22.21;41.67
56270;BME280;42176;43.240;27.880;2022-10-23T10:56:30;100431.34;;;22.29;41.34
56270;BME280;42176;43.240;27.880;2022-10-23T10:59:03;100433.88;;;22.32;41.08
56270;BME280;42176;43.240;27.880;2022-10-23T11:01:42;100437.31;;;22.34;41.31
56270;BME280;42176;43.240;27.880;2022-10-23T11:06:42;100425.69;;;22.34;41.04
56270;BME280;42176;43.240;27.880;2022-10-23T11:09:16;100428.66;;;22.29;40.64
56270;BME280;42176;43.240;27.880;2022-10-23T11:11:44;100419.19;;;22.36;40.88
56270;BME280;42176;43.240;27.880;2022-10-23T11:14:17;100378.13;;;22.31;40.45
56270;BME280;42176;43.240;27.880;2022-10-23T11:17:09;100422.50;;;22.55;40.43
56270;BME280;42176;43.240;27.880;2022-10-23T11:19:43;100416.78;;;22.46;40.37
56270;BME280;42176;43.240;27.880;2022-10-23T11:22:27;100425.72;;;22.47;40.17
56270;BME280;42176;43.240;27.880;2022-10-23T11:31:07;100428.34;;;22.61;40.53
56270;BME280;42176;43.240;27.880;2022-10-23T11:36:47;100426.66;;;22.73;39.92
56270;BME280;42176;43.240;27.880;2022-10-23T11:39:30;100438.56;;;22.71;39.53
56270;BME280;42176;43.240;27.880;2022-10-23T11:41:57;100438.31;;;22.74;39.18
56270;BME280;42176;43.240;27.880;2022-10-23T11:47:00;100429.25;;;22.75;39.85
56270;BME280;42176;43.240;27.880;2022-10-23T11:49:25;100430.66;;;22.68;39.46
56270;BME280;42176;43.240;27.880;2022-10-23T11:52:02;100426.00;;;22.70;39.66
56270;BME280;42176;43.240;27.880;2022-10-23T11:54:28;100425.56;;;22.76;39.53
56270;BME280;42176;43.240;27.880;2022-10-23T11:59:34;100430.56;;;22.82;39.62
56270;BME280;42176;43.240;27.880;2022-10-23T12:04:47;100455.16;;;22.64;39.42
56270;BME280;42176;43.240;27.880;2022-10-23T12:07:29;100442.94;;;22.59;39.12
56270;BME280;42176;43.240;27.880;2022-10-23T12:10:06;100455.56;;;22.58;39.72
56270;BME280;42176;43.240;27.880;2022-10-23T12:12:36;100436.00;;;22.55;39.78
56270;BME280;42176;43.240;27.880;2022-10-23T12:17:42;100448.66;;;22.54;39.33
56270;BME280;42176;43.240;27.880;2022-10-23T12:28:44;100451.09;;;22.72;39.33
56270;BME280;42176;43.240;27.880;2022-10-23T12:31:25;100454.13;;;22.80;39.36
56270;BME280;42176;43.240;27.880;2022-10-23T12:39:27;100436.84;;;22.95;39.01
56270;BME280;42176;43.240;27.880;2022-10-23T12:41:53;100442.69;;;23.02;38.90
56270;BME280;42176;43.240;27.880;2022-10-23T12:44:20;100449.50;;;23.08;39.21
56270;BME280;42176;43.240;27.880;2022-10-23T12:46:47;100451.78;;;23.14;38.80
56270;BME280;42176;43.240;27.880;2022-10-23T12:49:17;100452.00;;;23.11;38.65
56270;BME280;42176;43.240;27.880;2022-10-23T12:51:43;100455.03;;;23.06;38.86
56270;BME280;42176;43.240;27.880;2022-10-23T12:54:17;100456.53;;;22.98;38.85
56270;BME280;42176;43.240;27.880;2022-10-23T12:56:44;100456.94;;;22.91;38.86
56270;BME280;42176;43.240;27.880;2022-10-23T12:59:16;100465.06;;;22.91;39.26
56270;BME280;42176;43.240;27.880;2022-10-23T13:01:42;100453.38;;;22.78;39.08
56270;BME280;42176;43.240;27.880;2022-10-23T13:04:12;100468.94;;;22.74;39.50
56270;BME280;42176;43.240;27.880;2022-10-23T13:06:41;100461.03;;;22.71;39.51
56270;BME280;42176;43.240;27.880;2022-10-23T13:09:19;100465.34;;;22.74;39.88
56270;BME280;42176;43.240;27.880;2022-10-23T13:11:46;100465.66;;;22.69;39.95
56270;BME280;42176;43.240;27.880;2022-10-23T13:14:12;100475.47;;;22.57;39.85
56270;BME280;42176;43.240;27.880;2022-10-23T13:16:38;100472.97;;;22.54;39.69
56270;BME280;42176;43.240;27.880;2022-10-23T13:19:03;100475.22;;;22.47;40.05
56270;BME280;42176;43.240;27.880;2022-10-23T13:21:29;100474.06;;;22.37;40.00
56270;BME280;42176;43.240;27.880;2022-10-23T13:23:55;100473.41;;;22.33;40.32
56270;BME280;42176;43.240;27.880;2022-10-23T13:28:52;100469.16;;;22.29;40.68
56270;BME280;42176;43.240;27.880;2022-10-23T13:34:17;100471.47;;;22.35;40.57
56270;BME280;42176;43.240;27.880;2022-10-23T13:36:55;100480.53;;;22.34;40.01
56270;BME280;42176;43.240;27.880;2022-10-23T13:39:27;100487.31;;;22.42;40.22
56270;BME280;42176;43.240;27.880;2022-10-23T13:41:54;100478.41;;;22.40;40.05
56270;BME280;42176;43.240;27.880;2022-10-23T13:44:21;100477.25;;;22.44;39.99
56270;BME280;42176;43.240;27.880;2022-10-23T13:46:48;100490.56;;;22.47;40.16
56270;BME280;42176;43.240;27.880;2022-10-23T13:49:14;100488.41;;;22.52;40.03
56270;BME280;42176;43.240;27.880;2022-10-23T13:51:43;100490.16;;;22.53;40.26
56270;BME280;42176;43.240;27.880;2022-10-23T13:54:18;100470.69;;;22.48;40.21
56270;BME280;42176;43.240;27.880;2022-10-23T13:56:44;100475.47;;;22.57;39.89
56270;BME280;42176;43.240;27.880;2022-10-23T13:59:10;100485.00;;;22.63;39.46
56270;BME280;42176;43.240;27.880;2022-10-23T14:01:35;100484.31;;;22.59;39.68
56270;BME280;42176;43.240;27.880;2022-10-23T14:04:02;100484.44;;;22.58;39.23
56270;BME280;42176;43.240;27.880;2022-10-23T14:06:46;100490.34;;;22.50;39.93
56270;BME280;42176;43.240;27.880;2022-10-23T14:09:13;100492.88;;;22.39;39.96
56270;BME280;42176;43.240;27.880;2022-10-23T14:11:39;100503.53;;;22.42;40.05
56270;BME280;42176;43.240;27.880;2022-10-23T14:14:04;100501.75;;;22.41;40.15
56270;BME280;42176;43.240;27.880;2022-10-23T14:16:30;100501.94;;;22.38;40.01
56270;BME280;42176;43.240;27.880;2022-10-23T14:18:55;100485.22;;;22.18;40.23
56270;BME280;42176;43.240;27.880;2022-10-23T14:21:22;100489.75;;;22.17;40.15
56270;BME280;42176;43.240;27.880;2022-10-23T14:23:49;100494.19;;;22.18;40.32
56270;BME280;42176;43.240;27.880;2022-10-23T14:26:17;100499.88;;;22.14;40.12
56270;BME280;42176;43.240;27.880;2022-10-23T14:28:43;100500.28;;;22.08;40.28
56270;BME280;42176;43.240;27.880;2022-10-23T14:31:14;100507.59;;;22.05;40.24
56270;BME280;42176;43.240;27.880;2022-10-23T14:33:40;100502.59;;;21.99;40.65
56270;BME280;42176;43.240;27.880;2022-10-23T14:36:06;100500.38;;;21.92;40.90
56270;BME280;42176;43.240;27.880;2022-10-23T14:38:32;100517.94;;;21.84;40.74
56270;BME280;42176;43.240;27.880;2022-10-23T14:40:58;100506.28;;;21.69;40.57